createdAt,value
2017-12-25T00:00:29.283Z,5.70
2017-12-25T00:02:58.285Z,6.40
2017-12-25T00:05:26.019Z,6.17
2017-12-25T00:07:53.514Z,7.17
2017-12-25T00:10:21.398Z,5.90
2017-12-25T00:12:48.994Z,5.70
2017-12-25T00:15:17.068Z,6.07
2017-12-25T00:17:45.015Z,5.70
2017-12-25T00:20:12.502Z,7.93
2017-12-25T00:22:40.011Z,7.93
2017-12-25T00:25:08.079Z,7.07
2017-12-25T00:27:36.804Z,6.70
2017-12-25T00:30:04.295Z,7.43
2017-12-25T00:32:32.299Z,7.30
2017-12-25T00:34:59.799Z,7.60
2017-12-25T00:37:27.307Z,6.90
2017-12-25T00:39:55.007Z,7.80
2017-12-25T00:42:22.515Z,8.20
2017-12-25T00:44:50.076Z,8.67
2017-12-25T00:47:18.354Z,7.90
2017-12-25T00:49:46.063Z,9.50
2017-12-25T00:52:13.824Z,8.10
2017-12-25T00:54:41.586Z,10.83
2017-12-25T00:57:09.351Z,10.10
2017-12-25T00:59:37.119Z,9.60
2017-12-25T01:02:05.498Z,10.60
2017-12-25T01:04:33.003Z,10.97
2017-12-25T01:07:00.715Z,10.60
2017-12-25T01:09:28.223Z,10.90
2017-12-25T01:11:55.934Z,11.00
2017-12-25T01:14:23.471Z,15.47
2017-12-25T01:16:51.155Z,13.10
2017-12-25T01:19:18.664Z,10.90
2017-12-25T01:21:46.159Z,10.50
2017-12-25T01:24:13.668Z,10.50
2017-12-25T01:26:43.062Z,11.00
2017-12-25T01:29:12.101Z,11.83
2017-12-25T01:31:39.887Z,7.87
2017-12-25T01:34:08.101Z,9.83
2017-12-25T01:36:36.975Z,10.83
2017-12-25T01:39:04.475Z,8.97
2017-12-25T01:41:32.354Z,10.10
2017-12-25T01:44:00.603Z,10.83
2017-12-25T01:46:28.515Z,9.80
2017-12-25T01:48:56.040Z,10.00
2017-12-25T01:51:24.450Z,9.27
2017-12-25T01:53:52.852Z,7.43
2017-12-25T01:56:22.571Z,9.50
2017-12-25T01:58:58.431Z,9.60
2017-12-25T02:01:32.710Z,9.87
2017-12-25T02:04:18.295Z,10.90
2017-12-25T02:07:08.779Z,9.90
2017-12-25T02:09:36.555Z,9.60
2017-12-25T02:12:04.064Z,6.23
2017-12-25T02:14:31.771Z,8.03
2017-12-25T02:16:59.668Z,9.47
2017-12-25T02:19:28.233Z,9.40
2017-12-25T02:21:56.287Z,9.53
2017-12-25T02:24:24.175Z,9.10
2017-12-25T02:26:51.667Z,9.07
2017-12-25T02:29:19.932Z,8.50
2017-12-25T02:31:47.592Z,9.07
2017-12-25T02:34:15.483Z,10.67
2017-12-25T02:36:43.181Z,10.30
2017-12-25T02:39:10.675Z,9.90
2017-12-25T02:41:38.280Z,9.53
2017-12-25T02:44:05.854Z,8.20
2017-12-25T02:46:33.379Z,8.53
2017-12-25T02:49:01.029Z,8.90
2017-12-25T02:51:28.907Z,6.90
2017-12-25T02:53:57.337Z,9.00
2017-12-25T02:56:24.831Z,9.90
2017-12-25T02:58:53.091Z,7.30
2017-12-25T03:01:20.586Z,7.00
2017-12-25T03:03:48.082Z,10.10
2017-12-25T03:06:16.018Z,11.67
2017-12-25T03:08:43.534Z,10.60
2017-12-25T03:11:11.255Z,13.70
2017-12-25T03:13:39.023Z,12.13
2017-12-25T03:16:08.011Z,12.10
2017-12-25T03:18:36.022Z,11.47
2017-12-25T03:21:04.834Z,13.87
2017-12-25T03:23:32.340Z,9.50
2017-12-25T03:26:00.298Z,11.50
2017-12-25T03:28:27.810Z,10.50
2017-12-25T03:30:55.428Z,11.73
2017-12-25T03:33:23.700Z,11.67
2017-12-25T03:35:52.007Z,11.43
2017-12-25T03:38:19.506Z,6.77
2017-12-25T03:40:49.339Z,10.10
2017-12-25T03:43:17.099Z,10.20
2017-12-25T03:45:44.870Z,9.73
2017-12-25T03:48:12.763Z,8.93
2017-12-25T03:50:41.307Z,6.77
2017-12-25T03:53:08.811Z,9.63
2017-12-25T03:55:36.839Z,7.47
2017-12-25T03:58:04.343Z,8.33
2017-12-25T04:00:32.059Z,7.60
2017-12-25T04:02:59.549Z,7.30
2017-12-25T04:05:27.868Z,7.73
2017-12-25T04:07:55.356Z,8.00
2017-12-25T04:10:23.361Z,7.07
2017-12-25T04:12:50.856Z,7.70
2017-12-25T04:15:18.471Z,6.70
2017-12-25T04:17:46.087Z,8.20
2017-12-25T04:20:13.595Z,9.03
2017-12-25T04:22:41.092Z,8.07
2017-12-25T04:25:08.596Z,7.53
2017-12-25T04:27:36.227Z,8.87
2017-12-25T04:30:04.004Z,7.17
2017-12-25T04:32:31.496Z,8.90
2017-12-25T04:34:59.215Z,7.13
2017-12-25T04:37:26.710Z,8.17
2017-12-25T04:39:54.431Z,7.30
2017-12-25T04:42:21.925Z,7.80
2017-12-25T04:44:49.428Z,8.77
2017-12-25T04:47:17.025Z,8.27
2017-12-25T04:49:44.527Z,8.43
2017-12-25T04:52:12.032Z,7.97
2017-12-25T04:54:39.527Z,7.30
2017-12-25T04:57:07.027Z,7.30
2017-12-25T04:59:34.701Z,7.27
2017-12-25T05:02:02.755Z,6.90
2017-12-25T05:04:31.028Z,5.57
2017-12-25T05:06:58.609Z,8.07
2017-12-25T05:09:26.103Z,5.90
2017-12-25T05:11:54.095Z,5.60
2017-12-25T05:14:21.589Z,3.40
2017-12-25T05:16:49.353Z,6.70
2017-12-25T05:19:17.876Z,5.30
2017-12-25T05:21:46.155Z,4.70
2017-12-25T05:24:14.181Z,4.23
2017-12-25T05:26:42.251Z,4.93
2017-12-25T05:29:10.631Z,5.37
2017-12-25T05:31:39.123Z,4.00
2017-12-25T05:34:06.599Z,4.20
2017-12-25T05:36:34.867Z,3.90
2017-12-25T05:39:02.356Z,2.70
2017-12-25T05:41:30.063Z,4.10
2017-12-25T05:43:57.826Z,4.97
2017-12-25T05:46:25.585Z,3.90
2017-12-25T05:48:53.360Z,4.93
2017-12-25T05:51:21.968Z,3.10
2017-12-25T05:53:49.440Z,3.73
2017-12-25T05:56:16.952Z,4.10
2017-12-25T05:58:44.460Z,3.20
2017-12-25T06:01:12.788Z,3.87
2017-12-25T06:03:40.770Z,4.20
2017-12-25T06:06:08.307Z,5.27
2017-12-25T06:08:36.211Z,4.57
2017-12-25T06:11:03.748Z,4.90
2017-12-25T06:13:31.299Z,6.20
2017-12-25T06:15:58.782Z,5.17
2017-12-25T06:18:26.517Z,6.00
2017-12-25T06:20:54.009Z,5.87
2017-12-25T06:23:21.731Z,5.40
2017-12-25T06:25:49.222Z,6.37
2017-12-25T06:28:16.730Z,6.83
2017-12-25T06:30:44.352Z,7.37
2017-12-25T06:33:11.908Z,7.40
2017-12-25T06:35:39.632Z,8.30
2017-12-25T06:38:07.135Z,9.77
2017-12-25T06:40:35.161Z,8.10
2017-12-25T06:43:03.624Z,10.00
2017-12-25T06:45:31.268Z,11.13
2017-12-25T06:47:59.064Z,7.57
2017-12-25T06:50:26.828Z,12.20
2017-12-25T06:52:56.107Z,12.10
2017-12-25T06:55:23.604Z,13.70
2017-12-25T06:57:52.231Z,10.80
2017-12-25T07:00:20.703Z,11.50
2017-12-25T07:02:49.092Z,12.03
2017-12-25T07:05:17.016Z,12.73
2017-12-25T07:07:45.451Z,14.20
2017-12-25T07:10:13.236Z,12.80
2017-12-25T07:12:40.736Z,13.83
2017-12-25T07:15:08.235Z,11.27
2017-12-25T07:17:35.743Z,12.90
2017-12-25T07:20:04.016Z,7.90
2017-12-25T07:22:32.056Z,13.23
2017-12-25T07:24:59.559Z,13.20
2017-12-25T07:27:27.240Z,12.60
2017-12-25T07:29:55.036Z,11.03
2017-12-25T07:32:23.564Z,15.57
2017-12-25T07:34:51.832Z,12.87
2017-12-25T07:37:19.555Z,12.50
2017-12-25T07:39:47.904Z,14.07
2017-12-25T07:42:15.404Z,14.27
2017-12-25T07:44:43.465Z,14.80
2017-12-25T07:47:11.024Z,11.70
2017-12-25T07:49:38.908Z,13.13
2017-12-25T07:52:06.412Z,12.70
2017-12-25T07:54:33.927Z,9.63
2017-12-25T07:57:02.208Z,10.30
2017-12-25T07:59:30.968Z,11.67
2017-12-25T08:01:58.582Z,12.37
2017-12-25T08:04:26.847Z,12.60
2017-12-25T08:06:54.567Z,12.73
2017-12-25T08:09:22.075Z,13.70
2017-12-25T08:11:49.748Z,10.27
2017-12-25T08:14:17.824Z,12.40
2017-12-25T08:16:45.620Z,12.30
2017-12-25T08:19:13.120Z,14.23
2017-12-25T08:21:40.840Z,13.00
2017-12-25T08:24:08.443Z,15.40
2017-12-25T08:26:36.719Z,14.10
2017-12-25T08:29:05.025Z,11.17
2017-12-25T08:31:32.528Z,12.70
2017-12-25T08:34:00.020Z,11.60
2017-12-25T08:53:46.542Z,14.10
2017-12-25T08:56:14.119Z,13.70
2017-12-25T08:58:41.854Z,10.90
2017-12-25T09:01:09.348Z,12.20
2017-12-25T09:03:37.120Z,8.93
2017-12-25T09:06:04.629Z,10.10
2017-12-25T09:08:32.123Z,10.73
2017-12-25T09:10:59.795Z,11.77
2017-12-25T09:13:27.300Z,10.83
2017-12-25T09:15:55.063Z,12.17
2017-12-25T09:18:23.087Z,11.77
2017-12-25T09:20:51.503Z,10.87
2017-12-25T09:23:19.020Z,12.47
2017-12-25T09:25:47.285Z,11.23
2017-12-25T09:28:15.191Z,7.37
2017-12-25T09:30:44.407Z,10.23
2017-12-25T09:33:11.912Z,10.43
2017-12-25T09:35:39.583Z,8.50
2017-12-25T09:38:07.097Z,8.40
2017-12-25T09:40:34.795Z,10.70
2017-12-25T09:43:02.687Z,9.57
2017-12-25T09:45:32.279Z,11.07
2017-12-25T09:47:59.955Z,8.60
2017-12-25T09:50:27.696Z,9.73
2017-12-25T09:52:55.192Z,8.90
2017-12-25T09:55:22.955Z,10.07
2017-12-25T09:57:50.458Z,8.97
2017-12-25T10:00:19.074Z,9.80
2017-12-25T10:02:46.882Z,9.63
2017-12-25T10:05:14.596Z,10.47
2017-12-25T10:07:42.092Z,5.57
2017-12-25T10:10:09.596Z,8.13
2017-12-25T10:12:37.267Z,9.00
2017-12-25T10:15:05.040Z,9.83
2017-12-25T10:17:32.531Z,9.40
2017-12-25T10:20:00.052Z,9.07
2017-12-25T10:22:28.319Z,5.97
2017-12-25T10:24:56.090Z,9.37
2017-12-25T10:27:24.474Z,9.43
2017-12-25T10:29:52.080Z,8.23
2017-12-25T10:32:20.344Z,9.00
2017-12-25T10:34:47.859Z,7.03
2017-12-25T10:37:15.355Z,6.67
2017-12-25T10:39:42.861Z,7.33
2017-12-25T10:42:10.547Z,7.40
2017-12-25T10:44:38.499Z,7.70
2017-12-25T10:47:06.263Z,7.93
2017-12-25T10:49:34.808Z,7.70
2017-12-25T10:52:03.125Z,8.27
2017-12-25T10:54:31.020Z,8.17
2017-12-25T10:56:58.544Z,7.30
2017-12-25T10:59:26.571Z,7.53
2017-12-25T11:01:54.177Z,7.93
2017-12-25T11:04:21.668Z,6.97
2017-12-25T11:06:49.295Z,8.00
2017-12-25T11:09:17.155Z,8.27
2017-12-25T11:11:44.663Z,8.13
2017-12-25T11:14:12.379Z,8.07
2017-12-25T11:16:39.884Z,8.57
2017-12-25T11:19:08.212Z,8.33
2017-12-25T11:21:35.711Z,8.77
2017-12-25T11:24:03.982Z,6.13
2017-12-25T11:26:31.999Z,7.00
2017-12-25T11:28:59.483Z,7.80
2017-12-25T11:31:27.010Z,7.63
2017-12-25T11:33:54.691Z,7.10
2017-12-25T11:36:23.077Z,7.77
2017-12-25T11:38:50.576Z,8.27
2017-12-25T11:41:18.287Z,6.87
2017-12-25T11:43:46.352Z,6.57
2017-12-25T11:46:14.367Z,6.00
2017-12-25T11:48:42.664Z,6.80
2017-12-25T11:51:11.677Z,6.43
2017-12-25T11:53:39.164Z,6.90
2017-12-25T11:56:09.872Z,5.97
2017-12-25T11:58:37.763Z,6.90
2017-12-25T12:01:05.271Z,7.53
2017-12-25T12:03:33.699Z,7.13
2017-12-25T12:06:01.214Z,6.17
2017-12-25T12:08:29.223Z,7.10
2017-12-25T12:10:57.112Z,5.67
2017-12-25T12:13:24.724Z,5.10
2017-12-25T12:15:52.211Z,7.07
2017-12-25T12:18:19.707Z,6.77
2017-12-25T12:20:47.699Z,6.30
2017-12-25T12:23:15.799Z,6.70
2017-12-25T12:25:44.160Z,6.20
2017-12-25T12:28:11.674Z,5.40
2017-12-25T12:30:39.407Z,5.73
2017-12-25T12:33:07.131Z,4.90
2017-12-25T12:35:34.623Z,6.20
2017-12-25T12:38:02.128Z,5.37
2017-12-25T12:40:29.851Z,5.23
2017-12-25T12:42:57.723Z,6.33
2017-12-25T12:45:25.267Z,6.37
2017-12-25T12:47:52.799Z,5.63
2017-12-25T12:50:20.505Z,5.60
2017-12-25T12:52:48.697Z,4.83
2017-12-25T12:55:16.198Z,5.10
2017-12-25T12:57:45.222Z,5.70
2017-12-25T13:00:13.119Z,6.23
2017-12-25T13:02:40.635Z,5.83
2017-12-25T13:05:08.135Z,4.67
2017-12-25T13:07:35.855Z,5.87
2017-12-25T13:10:03.618Z,5.93
2017-12-25T13:12:31.127Z,5.50
2017-12-25T13:14:58.840Z,6.20
2017-12-25T13:17:26.743Z,3.70
2017-12-25T13:19:54.648Z,4.27
2017-12-25T13:22:22.132Z,5.43
2017-12-25T13:24:49.627Z,5.07
2017-12-25T13:27:17.304Z,3.33
2017-12-25T13:29:45.424Z,5.53
2017-12-25T13:32:12.932Z,4.47
2017-12-25T13:34:40.824Z,4.73
2017-12-25T13:37:08.404Z,5.13
2017-12-25T13:39:36.167Z,4.90
2017-12-25T13:42:03.671Z,4.63
2017-12-25T13:44:32.476Z,4.53
2017-12-25T13:47:00.052Z,4.57
2017-12-25T13:49:28.143Z,3.90
2017-12-25T13:51:55.908Z,5.13
2017-12-25T13:54:23.667Z,5.30
2017-12-25T13:56:51.431Z,4.50
2017-12-25T13:59:18.928Z,4.60
2017-12-25T14:01:46.427Z,4.50
2017-12-25T14:04:14.027Z,4.90
2017-12-25T14:06:41.529Z,5.00
2017-12-25T14:09:09.536Z,4.57
2017-12-25T14:11:37.427Z,5.17
2017-12-25T14:14:04.927Z,5.67
2017-12-25T14:16:32.624Z,5.30
2017-12-25T14:19:00.115Z,5.50
2017-12-25T14:21:27.872Z,5.27
2017-12-25T14:23:56.201Z,2.63
2017-12-25T14:26:23.704Z,2.97
2017-12-25T14:28:51.407Z,4.70
2017-12-25T14:31:20.432Z,3.73
2017-12-25T14:33:47.924Z,5.77
2017-12-25T14:36:15.415Z,5.50
2017-12-25T14:38:43.099Z,5.27
2017-12-25T14:41:10.599Z,5.43
2017-12-25T14:43:38.330Z,7.07
2017-12-25T14:46:06.215Z,6.07
2017-12-25T14:48:34.099Z,4.50
2017-12-25T14:51:01.600Z,4.67
2017-12-25T14:53:29.541Z,4.67
2017-12-25T14:55:57.795Z,4.17
2017-12-25T14:58:25.283Z,5.00
2017-12-25T15:00:52.983Z,4.63
2017-12-25T15:03:20.604Z,5.07
2017-12-25T15:05:48.934Z,4.23
2017-12-25T15:08:16.444Z,3.97
2017-12-25T15:10:43.995Z,4.40
2017-12-25T15:13:12.112Z,4.40
2017-12-25T15:15:39.612Z,4.67
2017-12-25T15:18:08.343Z,4.40
2017-12-25T15:20:36.007Z,2.43
2017-12-25T15:23:04.043Z,4.40
2017-12-25T15:25:32.471Z,4.27
2017-12-25T15:28:00.223Z,3.30
2017-12-25T15:30:27.719Z,3.73
2017-12-25T15:32:55.948Z,3.70
2017-12-25T15:35:23.448Z,3.00
2017-12-25T15:37:50.971Z,3.33
2017-12-25T15:40:18.919Z,3.97
2017-12-25T15:42:46.499Z,4.00
2017-12-25T15:45:14.924Z,4.20
2017-12-25T15:47:42.591Z,4.07
2017-12-25T15:50:10.391Z,4.40
2017-12-25T15:52:37.883Z,3.40
2017-12-25T15:55:05.647Z,3.77
2017-12-25T15:57:33.651Z,4.73
2017-12-25T16:00:01.460Z,4.93
2017-12-25T16:02:28.953Z,5.30
2017-12-25T16:04:57.176Z,5.40
2017-12-25T16:07:24.751Z,3.80
2017-12-25T16:09:52.660Z,5.27
2017-12-25T16:12:22.119Z,5.00
2017-12-25T16:14:49.618Z,3.80
2017-12-25T16:17:17.507Z,5.10
2017-12-25T16:19:45.408Z,4.20
2017-12-25T16:22:12.928Z,4.37
2017-12-25T16:24:41.159Z,4.30
2017-12-25T16:27:08.676Z,4.87
2017-12-25T16:29:37.039Z,5.03
2017-12-25T16:32:04.544Z,4.33
2017-12-25T16:34:32.540Z,3.50
2017-12-25T16:37:00.041Z,4.37
2017-12-25T16:39:27.532Z,4.23
2017-12-25T16:41:55.568Z,3.77
2017-12-25T16:44:23.016Z,4.40
2017-12-25T16:46:51.423Z,4.43
2017-12-25T16:49:18.919Z,4.00
2017-12-25T16:51:46.418Z,3.90
2017-12-25T16:54:14.068Z,4.53
2017-12-25T16:56:42.759Z,4.10
2017-12-25T16:59:10.820Z,2.77
2017-12-25T17:01:38.715Z,3.87
2017-12-25T17:04:06.200Z,2.90
2017-12-25T17:06:33.818Z,3.13
2017-12-25T17:09:01.540Z,2.70
2017-12-25T17:11:29.979Z,2.70
2017-12-25T17:13:58.963Z,2.70
2017-12-25T17:16:26.477Z,2.97
2017-12-25T17:18:54.126Z,3.37
2017-12-25T17:21:22.572Z,3.30
2017-12-25T17:23:50.067Z,2.37
2017-12-25T17:26:17.562Z,3.30
2017-12-25T17:28:45.247Z,2.80
2017-12-25T17:31:12.756Z,3.10
2017-12-25T17:33:40.467Z,2.63
2017-12-25T17:36:07.972Z,3.07
2017-12-25T17:38:35.471Z,3.30
2017-12-25T17:41:02.975Z,2.80
2017-12-25T17:43:31.528Z,2.80
2017-12-25T17:45:59.812Z,3.63
2017-12-25T17:48:28.600Z,2.93
2017-12-25T17:50:56.320Z,3.50
2017-12-25T17:53:24.423Z,4.23
2017-12-25T17:55:52.800Z,4.67
2017-12-25T17:58:20.701Z,4.27
2017-12-25T18:00:48.181Z,4.70
2017-12-25T18:03:16.443Z,4.57
2017-12-25T18:05:44.160Z,5.13
2017-12-25T18:08:11.927Z,3.60
2017-12-25T18:10:39.688Z,3.80
2017-12-25T18:13:07.204Z,4.97
2017-12-25T18:15:35.091Z,4.60
2017-12-25T18:18:02.672Z,4.73
2017-12-25T18:20:30.983Z,5.23
2017-12-25T18:22:59.428Z,4.60
2017-12-25T18:25:27.139Z,5.10
2017-12-25T18:27:54.643Z,4.73
2017-12-25T18:30:22.412Z,5.17
2017-12-25T18:32:50.178Z,5.13
2017-12-25T18:35:17.941Z,4.73
2017-12-25T18:37:46.188Z,5.50
2017-12-25T18:40:14.387Z,5.73
2017-12-25T18:42:41.888Z,5.17
2017-12-25T18:45:09.381Z,4.30
2017-12-25T18:47:37.028Z,4.67
2017-12-25T18:50:04.919Z,5.53
2017-12-25T18:52:33.548Z,3.77
2017-12-25T18:55:01.050Z,3.40
2017-12-25T18:57:29.675Z,4.80
2017-12-25T18:59:57.415Z,4.17
2017-12-25T19:02:25.183Z,4.63
2017-12-25T19:04:53.096Z,4.30
2017-12-25T19:07:21.627Z,3.90
2017-12-25T19:09:49.395Z,4.40
2017-12-25T19:12:16.900Z,4.23
2017-12-25T19:14:45.155Z,3.90
2017-12-25T19:17:12.657Z,3.57
2017-12-25T19:19:40.448Z,4.13
2017-12-25T19:22:08.212Z,4.27
2017-12-25T19:24:35.976Z,4.00
2017-12-25T19:27:03.744Z,3.87
2017-12-25T19:29:31.244Z,3.50
2017-12-25T19:31:58.743Z,3.80
2017-12-25T19:34:26.372Z,4.60
2017-12-25T19:36:53.878Z,11.00
2017-12-25T19:39:21.383Z,6.00
2017-12-25T19:41:49.832Z,5.37
2017-12-25T19:44:17.432Z,6.47
2017-12-25T19:46:45.237Z,6.80
2017-12-25T19:49:12.999Z,7.30
2017-12-25T19:51:40.500Z,8.50
2017-12-25T19:54:08.183Z,7.87
2017-12-25T19:56:35.688Z,9.20
2017-12-25T19:59:03.955Z,9.30
2017-12-25T20:01:31.496Z,10.40
2017-12-25T20:03:59.004Z,8.57
2017-12-25T20:06:26.866Z,11.30
2017-12-25T20:08:54.915Z,9.13
2017-12-25T20:11:22.423Z,10.10
2017-12-25T20:13:50.941Z,12.47
2017-12-25T20:16:18.712Z,17.13
2017-12-25T20:18:47.604Z,10.33
2017-12-25T20:21:15.768Z,11.53
2017-12-25T20:23:43.275Z,11.03
2017-12-25T20:26:10.772Z,10.83
2017-12-25T20:28:39.164Z,10.63
2017-12-25T20:31:06.823Z,10.40
2017-12-25T20:33:35.337Z,10.57
2017-12-25T20:36:02.828Z,10.27
2017-12-25T20:38:31.339Z,9.60
2017-12-25T20:40:58.851Z,10.30
2017-12-25T20:43:27.150Z,9.60
2017-12-25T20:45:54.643Z,10.07
2017-12-25T20:48:22.151Z,11.50
2017-12-25T20:50:49.648Z,8.87
2017-12-25T20:53:17.156Z,10.00
2017-12-25T20:55:45.420Z,10.60
2017-12-25T20:58:13.124Z,9.70
2017-12-25T21:00:40.840Z,9.57
2017-12-25T21:03:08.364Z,9.50
2017-12-25T21:05:36.127Z,9.23
2017-12-25T21:08:03.892Z,8.70
2017-12-25T21:10:31.400Z,8.30
2017-12-25T21:12:58.892Z,7.40
2017-12-25T21:15:26.445Z,7.33
2017-12-25T21:17:54.515Z,11.30
2017-12-25T21:20:22.008Z,14.43
2017-12-25T21:22:50.472Z,8.70
2017-12-25T21:25:17.979Z,7.97
2017-12-25T21:27:45.647Z,8.23
2017-12-25T21:30:13.147Z,7.37
2017-12-25T21:32:41.262Z,6.90
2017-12-25T21:35:08.755Z,7.90
2017-12-25T21:37:36.748Z,7.73
2017-12-25T21:40:04.249Z,8.00
2017-12-25T21:42:31.936Z,8.40
2017-12-25T21:44:59.447Z,9.00
2017-12-25T21:47:27.059Z,6.87
2017-12-25T21:49:56.024Z,7.50
2017-12-25T21:52:24.279Z,7.73
2017-12-25T21:54:52.016Z,7.40
2017-12-25T21:57:20.083Z,8.20
2017-12-25T21:59:48.090Z,6.43
2017-12-25T22:02:16.348Z,8.50
2017-12-25T22:04:44.294Z,9.57
2017-12-25T22:07:12.198Z,10.00
2017-12-25T22:09:39.697Z,10.13
2017-12-25T22:12:07.859Z,9.70
2017-12-25T22:14:35.356Z,9.73
2017-12-25T22:17:02.859Z,9.20
2017-12-25T22:19:30.575Z,9.10
2017-12-25T22:21:58.080Z,9.27
2017-12-25T22:24:25.791Z,11.00
2017-12-25T22:26:54.480Z,10.60
2017-12-25T22:29:22.616Z,8.53
2017-12-25T22:31:50.297Z,9.90
2017-12-25T22:34:18.080Z,9.20
2017-12-25T22:36:45.579Z,8.17
2017-12-25T22:39:13.259Z,8.57
2017-12-25T22:41:41.062Z,9.97
2017-12-25T22:44:09.621Z,11.10
2017-12-25T22:46:37.932Z,10.47
2017-12-25T22:49:05.538Z,10.10
2017-12-25T22:51:33.766Z,10.47
2017-12-25T22:54:01.699Z,7.97
2017-12-25T22:56:29.200Z,7.50
2017-12-25T22:58:56.695Z,8.13
2017-12-25T23:01:24.386Z,6.60
2017-12-25T23:03:52.635Z,6.27
2017-12-25T23:06:20.543Z,6.93
2017-12-25T23:08:48.044Z,7.53
2017-12-25T23:11:15.719Z,7.10
2017-12-25T23:13:43.211Z,6.50
2017-12-25T23:16:11.243Z,5.60
2017-12-25T23:18:38.744Z,5.70
2017-12-25T23:21:06.468Z,6.97
2017-12-25T23:23:33.983Z,6.60
2017-12-25T23:26:01.695Z,5.37
2017-12-25T23:28:29.199Z,5.50
2017-12-25T23:30:57.195Z,5.23
2017-12-25T23:33:24.725Z,5.50
2017-12-25T23:35:52.216Z,7.03
2017-12-25T23:38:19.910Z,5.93
2017-12-25T23:40:47.400Z,6.40
2017-12-25T23:43:15.742Z,6.80
2017-12-25T23:45:44.104Z,4.73
2017-12-25T23:48:11.619Z,5.63
2017-12-25T23:50:39.115Z,7.00
2017-12-25T23:53:06.764Z,5.60
2017-12-25T23:55:34.650Z,5.70
2017-12-25T23:58:02.346Z,6.00
